Lennig, Virginia
Current Conditions -  °F | °C
As of 11:35 PM on Tuesday 21 Oct 2014 (Local Time) from K0V4 Reporting Station
Overcast Overcast  
Wind Chill: 55°   Ceiling: 5500
Heat Index: 55°   Visibility: 10mi
Dew Point: 45°   Wind: 7mph
Humidity: 67%   Direction: 290°WNW
Pressure: 29.93"   Gusts: NA
Location:  36.9437°N, 78.9715°W
Report Text: K0V4 220335Z AUTO 29006KT 10SM BKN055 OVC110 13/07 A2993 RMK AO1 T01300071
Loading
Personal Weather Stations






























Interactive Weather Map
Tropical Storm Tracking
New forecast layout! Learn more

10-Day Weather Forecast

Advertisements
Track Severe Weather on mobile